createdAt,value
2018-02-18T00:00:04.194Z,100561.33
2018-02-18T00:02:33.084Z,100562.59
2018-02-18T00:05:01.628Z,100564.66
2018-02-18T00:07:30.270Z,100562.24
2018-02-18T00:09:58.896Z,100557.80
2018-02-18T00:12:27.468Z,100555.02
2018-02-18T00:14:57.609Z,100558.94
2018-02-18T00:17:26.208Z,100552.95
2018-02-18T00:19:54.769Z,100544.38
2018-02-18T00:22:23.325Z,100544.72
2018-02-18T00:24:52.864Z,100543.75
2018-02-18T00:27:21.420Z,100539.80
2018-02-18T00:29:50.736Z,100546.50
2018-02-18T00:32:19.352Z,100545.87
2018-02-18T00:34:47.904Z,100541.13
2018-02-18T00:37:17.216Z,100536.76
2018-02-18T00:39:45.844Z,100530.88
2018-02-18T00:42:14.425Z,100531.26
2018-02-18T00:44:42.972Z,100538.46
2018-02-18T00:47:11.604Z,100531.27
2018-02-18T00:49:40.180Z,100526.47
2018-02-18T00:52:08.744Z,100529.52
2018-02-18T00:54:37.349Z,100522.23
2018-02-18T00:57:05.947Z,100522.43
2018-02-18T00:59:35.264Z,100525.59
2018-02-18T01:02:04.093Z,100516.03
2018-02-18T01:04:32.641Z,100517.38
2018-02-18T01:07:01.188Z,100503.58
2018-02-18T01:09:29.929Z,100504.64
2018-02-18T01:11:58.484Z,100505.77
2018-02-18T01:14:27.796Z,100504.50
2018-02-18T01:16:57.156Z,100503.88
2018-02-18T01:19:25.740Z,100495.59
2018-02-18T01:21:54.305Z,100495.36
2018-02-18T01:24:23.095Z,100494.53
2018-02-18T01:26:51.644Z,100494.00
2018-02-18T01:29:20.192Z,100489.81
2018-02-18T01:31:49.036Z,100489.67
2018-02-18T01:34:17.588Z,100489.41
2018-02-18T01:36:46.905Z,100481.80
2018-02-18T01:39:15.648Z,100484.67
2018-02-18T01:41:44.204Z,100485.98
2018-02-18T01:44:12.752Z,100490.47
2018-02-18T01:46:41.495Z,100481.57
2018-02-18T01:49:10.058Z,100482.70
2018-02-18T01:51:38.612Z,100478.64
2018-02-18T01:54:07.517Z,100480.07
2018-02-18T01:56:36.068Z,100472.56
2018-02-18T01:59:05.383Z,100474.25
2018-02-18T02:01:34.073Z,100467.86
2018-02-18T02:04:02.625Z,100468.92
2018-02-18T02:06:31.945Z,100464.75
2018-02-18T02:09:00.540Z,100464.08
2018-02-18T02:11:29.096Z,100469.73
2018-02-18T02:13:58.412Z,100469.11
2018-02-18T02:16:27.229Z,100460.63
2018-02-18T02:18:55.784Z,100458.16
2018-02-18T02:21:24.330Z,100460.73
2018-02-18T02:23:53.089Z,100455.08
2018-02-18T02:26:21.648Z,100457.48
2018-02-18T02:28:50.205Z,100458.48
2018-02-18T02:31:19.664Z,100460.16
2018-02-18T02:33:48.220Z,100456.50
2018-02-18T02:36:16.777Z,100454.39
2018-02-18T02:38:45.435Z,100458.13
2018-02-18T02:41:13.996Z,100457.59
2018-02-18T02:43:42.541Z,100460.19
2018-02-18T02:46:11.144Z,100464.37
2018-02-18T02:48:39.710Z,100466.69
2018-02-18T02:51:08.260Z,100469.70
2018-02-18T02:53:38.521Z,100466.66
2018-02-18T02:56:07.073Z,100467.80
2018-02-18T02:58:36.393Z,100461.98
2018-02-18T03:01:05.015Z,100468.02
2018-02-18T03:03:33.564Z,100468.67
2018-02-18T03:06:02.112Z,100468.14
2018-02-18T03:08:30.969Z,100469.74
2018-02-18T03:10:59.517Z,100466.00
2018-02-18T03:13:28.068Z,100467.92
2018-02-18T03:15:56.676Z,100465.51
2018-02-18T03:18:25.229Z,100463.55
2018-02-18T03:20:53.808Z,100465.59
2018-02-18T03:23:22.525Z,100468.85
2018-02-18T03:25:51.841Z,100469.91
2018-02-18T03:28:20.397Z,100475.42
2018-02-18T03:30:49.964Z,100475.86
2018-02-18T03:33:18.516Z,100472.06
2018-02-18T03:35:47.072Z,100479.50
2018-02-18T03:38:16.635Z,100478.12
2018-02-18T03:40:45.183Z,100472.34
2018-02-18T03:43:13.732Z,100475.06
2018-02-18T03:45:43.109Z,100471.36
2018-02-18T03:48:11.658Z,100473.09
2018-02-18T03:50:40.278Z,100479.67
2018-02-18T03:53:09.048Z,100478.58
2018-02-18T03:55:37.601Z,100487.45
2018-02-18T03:58:06.916Z,100484.75
2018-02-18T04:00:35.716Z,100483.34
2018-02-18T04:03:04.264Z,100483.34
2018-02-18T04:05:33.576Z,100484.73
2018-02-18T04:08:02.164Z,100487.17
2018-02-18T04:10:30.710Z,100485.89
2018-02-18T04:12:59.261Z,100487.20
2018-02-18T04:15:27.880Z,100487.42
2018-02-18T04:17:57.932Z,100484.91
2018-02-18T04:20:26.488Z,100478.15
2018-02-18T04:22:55.857Z,100478.79
2018-02-18T04:25:24.404Z,100474.02
2018-02-18T04:27:52.953Z,100475.33
2018-02-18T04:30:22.617Z,100477.42
2018-02-18T04:32:51.931Z,100477.42
2018-02-18T04:35:20.481Z,100473.52
2018-02-18T04:37:49.168Z,100470.89
2018-02-18T04:40:17.713Z,100477.76
2018-02-18T04:42:47.025Z,100469.64
2018-02-18T04:45:16.580Z,100465.17
2018-02-18T04:47:45.128Z,100462.47
2018-02-18T04:50:13.676Z,100466.31
2018-02-18T04:52:42.280Z,100465.34
2018-02-18T04:55:11.580Z,100464.40
2018-02-18T04:57:40.905Z,100462.57
2018-02-18T05:00:09.509Z,100468.02
2018-02-18T05:02:38.056Z,100471.28
2018-02-18T05:05:07.372Z,100471.36
2018-02-18T05:07:35.973Z,100470.41
2018-02-18T05:10:04.528Z,100471.63
2018-02-18T05:12:33.072Z,100469.23
2018-02-18T05:15:01.760Z,100471.80
2018-02-18T05:17:30.316Z,100464.84
2018-02-18T05:19:58.866Z,100469.27
2018-02-18T05:22:27.560Z,100470.87
2018-02-18T05:24:56.108Z,100472.59
2018-02-18T05:27:25.432Z,100472.52
2018-02-18T05:29:55.798Z,100468.86
2018-02-18T05:32:25.123Z,100475.80
2018-02-18T05:34:53.677Z,100476.16
2018-02-18T05:37:22.268Z,100469.91
2018-02-18T05:39:50.821Z,100464.88
2018-02-18T05:42:19.367Z,100454.06
2018-02-18T05:44:48.736Z,100456.54
2018-02-18T05:47:17.292Z,100464.54
2018-02-18T05:49:45.840Z,100466.59
2018-02-18T05:52:15.212Z,100469.67
2018-02-18T05:54:43.780Z,100464.64
2018-02-18T05:57:12.332Z,100468.15
2018-02-18T05:59:40.932Z,100478.29
2018-02-18T06:02:09.489Z,100479.45
2018-02-18T06:04:38.808Z,100475.28
2018-02-18T06:07:07.416Z,100467.05
2018-02-18T06:09:35.964Z,100467.45
2018-02-18T06:12:04.517Z,100470.94
2018-02-18T06:14:34.085Z,100472.19
2018-02-18T06:17:02.636Z,100476.77
2018-02-18T06:19:31.184Z,100476.97
2018-02-18T06:21:59.789Z,100470.45
2018-02-18T06:24:28.340Z,100471.76
2018-02-18T06:26:56.894Z,100472.66
2018-02-18T06:29:25.893Z,100467.48
2018-02-18T06:31:54.445Z,100464.82
2018-02-18T06:34:22.999Z,100462.02
2018-02-18T06:36:52.381Z,100456.39
2018-02-18T06:39:20.936Z,100458.37
2018-02-18T06:41:49.533Z,100452.23
2018-02-18T06:44:18.417Z,100450.06
2018-02-18T06:46:46.964Z,100446.36
2018-02-18T06:49:15.512Z,100446.65
2018-02-18T06:51:44.473Z,100444.03
2018-02-18T06:54:13.017Z,100447.58
2018-02-18T06:56:41.573Z,100440.45
2018-02-18T06:59:10.265Z,100440.95
2018-02-18T07:01:39.588Z,100445.08
2018-02-18T07:04:08.136Z,100437.92
2018-02-18T07:06:36.829Z,100440.52
2018-02-18T07:09:05.441Z,100437.09
2018-02-18T07:11:33.993Z,100426.24
2018-02-18T07:14:02.597Z,100430.92
2018-02-18T07:16:31.916Z,100420.69
2018-02-18T07:19:00.465Z,100422.16
2018-02-18T07:21:30.672Z,100417.23
2018-02-18T07:23:59.237Z,100413.00
2018-02-18T07:26:27.788Z,100415.84
2018-02-18T07:28:56.610Z,100409.57
2018-02-18T07:31:25.168Z,100408.63
2018-02-18T07:33:53.725Z,100410.64
2018-02-18T07:36:23.275Z,100399.48
2018-02-18T07:38:51.824Z,100403.45
2018-02-18T07:41:20.376Z,100401.33
2018-02-18T07:43:49.236Z,100403.06
2018-02-18T07:46:17.792Z,100402.59
2018-02-18T07:48:46.344Z,100394.97
2018-02-18T07:51:15.711Z,100389.55
2018-02-18T07:53:44.262Z,100393.05
2018-02-18T07:56:12.816Z,100381.30
2018-02-18T07:58:42.189Z,100387.78
2018-02-18T08:01:10.748Z,100386.52
2018-02-18T08:03:40.001Z,100382.98
2018-02-18T08:06:09.388Z,100381.91
2018-02-18T08:08:38.708Z,100380.75
2018-02-18T08:11:08.029Z,100376.64
2018-02-18T08:13:36.664Z,100381.58
2018-02-18T08:16:05.240Z,100383.18
2018-02-18T08:18:33.811Z,100378.97
2018-02-18T08:21:02.449Z,100378.73
2018-02-18T08:23:31.001Z,100368.92
2018-02-18T08:25:59.558Z,100371.64
2018-02-18T08:28:29.063Z,100369.59
2018-02-18T08:30:57.614Z,100366.39
2018-02-18T08:33:26.164Z,100367.38
2018-02-18T08:35:55.828Z,100359.54
2018-02-18T08:38:24.377Z,100357.63
2018-02-18T08:40:53.709Z,100361.87
2018-02-18T08:43:22.461Z,100358.73
2018-02-18T08:45:51.016Z,100359.58
2018-02-18T08:48:19.570Z,100366.63
2018-02-18T08:50:48.169Z,100358.79
2018-02-18T08:53:16.717Z,100357.44
2018-02-18T08:55:45.258Z,100350.70
2018-02-18T08:58:14.825Z,100351.25
2018-02-18T09:00:43.381Z,100342.84
2018-02-18T09:03:11.974Z,100343.88
2018-02-18T09:05:40.725Z,100348.91
2018-02-18T09:08:10.049Z,100337.44
2018-02-18T09:10:38.604Z,100337.09
2018-02-18T09:13:08.375Z,100342.24
2018-02-18T09:15:36.930Z,100342.22
2018-02-18T09:18:05.493Z,100335.34
2018-02-18T09:20:35.028Z,100335.39
2018-02-18T09:23:03.585Z,100336.08
2018-02-18T09:25:32.137Z,100340.22
2018-02-18T09:28:00.754Z,100338.63
2018-02-18T09:30:29.316Z,100335.45
2018-02-18T09:32:58.636Z,100338.47
2018-02-18T09:35:27.240Z,100336.23
2018-02-18T09:37:55.804Z,100329.48
2018-02-18T09:40:24.365Z,100328.34
2018-02-18T09:42:53.848Z,100325.70
2018-02-18T09:45:23.173Z,100322.80
2018-02-18T09:47:52.500Z,100320.75
2018-02-18T09:50:22.077Z,100322.14
2018-02-18T09:52:50.632Z,100317.67
2018-02-18T09:55:19.185Z,100317.46
2018-02-18T09:57:47.881Z,100313.72
2018-02-18T10:02:50.190Z,100306.48
2018-02-18T10:05:18.766Z,100312.34
2018-02-18T10:07:47.330Z,100306.52
2018-02-18T10:10:16.041Z,100305.36
2018-02-18T10:12:44.603Z,100301.61
2018-02-18T10:15:13.169Z,100298.98
2018-02-18T10:17:41.989Z,100295.04
2018-02-18T10:20:10.549Z,100290.47
2018-02-18T10:22:39.109Z,100287.30
2018-02-18T10:25:08.509Z,100285.92
2018-02-18T10:27:37.064Z,100286.58
2018-02-18T10:30:05.629Z,100286.23
2018-02-18T10:32:34.281Z,100279.16
2018-02-18T10:35:02.841Z,100273.53
2018-02-18T10:37:32.173Z,100266.95
2018-02-18T10:40:00.801Z,100270.63
2018-02-18T10:42:29.383Z,100276.51
2018-02-18T10:44:57.948Z,100276.23
2018-02-18T10:47:26.556Z,100273.77
2018-02-18T10:49:55.121Z,100275.31
2018-02-18T10:52:23.681Z,100272.34
2018-02-18T10:54:52.389Z,100270.50
2018-02-18T10:57:20.954Z,100266.36
2018-02-18T10:59:49.513Z,100263.19
2018-02-18T11:02:18.137Z,100271.52
2018-02-18T11:04:46.700Z,100258.20
2018-02-18T11:07:15.264Z,100257.48
2018-02-18T11:09:44.153Z,100254.16
2018-02-18T11:12:12.721Z,100253.91
2018-02-18T11:14:41.332Z,100251.32
2018-02-18T11:17:09.950Z,100243.06
2018-02-18T11:19:39.277Z,100244.30
2018-02-18T11:22:07.840Z,100242.20
2018-02-18T11:24:37.210Z,100238.05
2018-02-18T11:27:05.774Z,100238.27
2018-02-18T11:29:34.345Z,100231.58
2018-02-18T11:32:02.950Z,100226.63
2018-02-18T11:34:31.519Z,100221.95
2018-02-18T11:37:00.076Z,100226.38
2018-02-18T11:39:29.007Z,100217.20
2018-02-18T11:41:57.672Z,100212.81
2018-02-18T11:44:26.249Z,100206.61
2018-02-18T11:46:55.207Z,100200.42
2018-02-18T11:49:23.780Z,100205.89
2018-02-18T11:51:53.142Z,100201.77
2018-02-18T11:54:21.938Z,100198.61
2018-02-18T11:56:50.526Z,100196.69
2018-02-18T11:59:19.097Z,100195.73
2018-02-18T12:01:47.800Z,100199.69
2018-02-18T12:04:16.348Z,100192.13
2018-02-18T12:06:44.897Z,100192.34
2018-02-18T12:09:14.373Z,100202.36
2018-02-18T12:11:42.957Z,100197.23
2018-02-18T12:14:11.520Z,100190.04
2018-02-18T12:16:40.304Z,100186.01
2018-02-18T12:19:08.857Z,100183.14
2018-02-18T12:21:37.441Z,100184.23
2018-02-18T12:24:06.141Z,100176.01
2018-02-18T12:26:34.704Z,100178.75
2018-02-18T12:29:03.269Z,100179.91
2018-02-18T12:31:32.653Z,100179.55
2018-02-18T12:34:01.217Z,100185.07
2018-02-18T12:36:30.533Z,100176.59
2018-02-18T12:38:59.138Z,100175.48
2018-02-18T12:41:35.052Z,100166.40
2018-02-18T12:44:03.836Z,100178.14
2018-02-18T12:46:32.392Z,100169.59
2018-02-18T12:49:00.948Z,100166.80
2018-02-18T12:51:30.518Z,100164.03
2018-02-18T12:53:59.120Z,100157.36
2018-02-18T12:56:27.693Z,100158.01
2018-02-18T12:58:56.385Z,100158.47
2018-02-18T13:01:24.962Z,100161.20
2018-02-18T13:03:53.535Z,100161.30
2018-02-18T13:06:22.148Z,100152.19
2018-02-18T13:08:50.708Z,100160.38
2018-02-18T13:11:19.272Z,100155.17
2018-02-18T13:13:47.889Z,100155.52
2018-02-18T13:16:16.466Z,100159.47
2018-02-18T13:18:45.032Z,100152.37
2018-02-18T13:21:13.826Z,100151.05
2018-02-18T13:23:42.377Z,100150.17
2018-02-18T13:26:10.929Z,100153.41
2018-02-18T13:28:40.697Z,100147.79
2018-02-18T13:31:09.252Z,100146.19
2018-02-18T13:33:37.812Z,100146.38
2018-02-18T13:36:07.272Z,100141.63
2018-02-18T13:38:35.828Z,100148.09
2018-02-18T13:41:04.396Z,100146.25
2018-02-18T13:43:33.014Z,100155.53
2018-02-18T13:46:01.568Z,100152.50
2018-02-18T13:48:30.440Z,100146.27
2018-02-18T13:50:59.962Z,100150.55
2018-02-18T13:53:28.521Z,100153.29
2018-02-18T13:55:57.964Z,100148.22
2018-02-18T13:58:26.977Z,100141.48
2018-02-18T14:00:55.525Z,100139.44
2018-02-18T14:03:24.082Z,100150.58
2018-02-18T14:05:53.461Z,100141.98
2018-02-18T14:08:22.030Z,100145.96
2018-02-18T14:10:50.585Z,100147.98
2018-02-18T14:13:19.469Z,100145.93
2018-02-18T14:15:48.030Z,100147.72
2018-02-18T14:18:17.417Z,100140.06
2018-02-18T14:20:46.280Z,100145.09
2018-02-18T14:23:14.832Z,100150.07
2018-02-18T14:25:43.390Z,100141.19
2018-02-18T14:28:12.757Z,100140.38
2018-02-18T14:30:41.319Z,100136.22
2018-02-18T14:33:09.881Z,100144.95
2018-02-18T14:35:39.560Z,100147.02
2018-02-18T14:38:08.876Z,100147.41
2018-02-18T14:40:38.385Z,100151.33
2018-02-18T14:43:24.550Z,100144.77
2018-02-18T14:46:10.857Z,100155.06
2018-02-18T14:48:57.865Z,100158.44
2018-02-18T14:51:44.135Z,100160.39
2018-02-18T14:54:30.269Z,100161.17
2018-02-18T14:57:17.319Z,100160.20
2018-02-18T14:59:45.885Z,100153.74
2018-02-18T15:02:14.445Z,100153.38
2018-02-18T15:04:43.049Z,100149.96
2018-02-18T15:07:11.634Z,100152.13
2018-02-18T15:09:40.961Z,100159.22
2018-02-18T15:12:09.662Z,100157.15
2018-02-18T15:14:38.221Z,100165.23
2018-02-18T15:17:06.774Z,100170.88
2018-02-18T15:19:36.141Z,100177.06
2018-02-18T15:22:04.721Z,100164.91
2018-02-18T15:24:33.277Z,100169.87
2018-02-18T15:27:02.189Z,100172.02
2018-02-18T15:29:30.746Z,100171.12
2018-02-18T15:31:59.305Z,100169.63
2018-02-18T15:34:28.988Z,100170.66
2018-02-18T15:36:57.549Z,100168.09
2018-02-18T15:39:26.144Z,100173.92
2018-02-18T15:41:54.748Z,100178.98
2018-02-18T15:44:23.304Z,100185.14
2018-02-18T15:46:51.866Z,100175.28
2018-02-18T15:49:20.613Z,100181.91
2018-02-18T15:51:49.934Z,100176.98
2018-02-18T15:54:18.485Z,100187.77
2018-02-18T15:56:48.057Z,100183.47
2018-02-18T15:59:16.617Z,100187.78
2018-02-18T16:01:45.176Z,100185.56
2018-02-18T16:04:13.776Z,100186.10
2018-02-18T16:06:42.337Z,100187.22
2018-02-18T16:09:10.905Z,100192.08
2018-02-18T16:11:39.524Z,100194.92
2018-02-18T16:14:08.076Z,100201.78
2018-02-18T16:16:36.688Z,100205.15
2018-02-18T16:19:05.293Z,100209.89
2018-02-18T16:21:33.854Z,100208.59
2018-02-18T16:24:02.413Z,100210.09
2018-02-18T16:26:31.220Z,100212.08
2018-02-18T16:28:59.785Z,100211.07
2018-02-18T16:31:28.349Z,100208.38
2018-02-18T16:33:56.961Z,100209.93
2018-02-18T16:36:25.521Z,100209.99
2018-02-18T16:38:54.850Z,100215.88
2018-02-18T16:41:23.457Z,100215.19
2018-02-18T16:43:52.032Z,100225.48
2018-02-18T16:46:20.601Z,100226.09
2018-02-18T16:48:49.313Z,100224.02
2018-02-18T16:51:17.885Z,100228.81
2018-02-18T16:53:47.209Z,100226.59
2018-02-18T16:56:15.820Z,100232.78
2018-02-18T16:58:45.146Z,100226.86
2018-02-18T17:01:13.709Z,100230.24
2018-02-18T17:03:42.313Z,100235.26
2018-02-18T17:06:10.874Z,100229.66
2018-02-18T17:08:39.437Z,100226.83
2018-02-18T17:11:08.820Z,100227.63
2018-02-18T17:13:37.392Z,100229.30
2018-02-18T17:16:06.721Z,100231.50
2018-02-18T17:18:36.207Z,100229.52
2018-02-18T17:21:05.592Z,100230.84
2018-02-18T17:23:34.156Z,100225.70
2018-02-18T17:26:02.972Z,100230.15
2018-02-18T17:28:31.538Z,100226.02
2018-02-18T17:31:00.097Z,100224.31
2018-02-18T17:33:28.800Z,100228.09
2018-02-18T17:35:57.368Z,100225.83
2018-02-18T17:38:25.928Z,100219.29
2018-02-18T17:40:55.310Z,100218.30
2018-02-18T17:43:23.876Z,100224.36
2018-02-18T17:45:52.469Z,100225.09
2018-02-18T17:48:21.345Z,100226.45
2018-02-18T17:50:49.909Z,100226.45
2018-02-18T17:53:18.497Z,100224.89
2018-02-18T17:55:47.109Z,100227.37
2018-02-18T17:58:15.680Z,100229.52
2018-02-18T18:00:44.237Z,100226.91
2018-02-18T18:03:13.717Z,100224.78
2018-02-18T18:05:42.282Z,100222.84
2018-02-18T18:08:11.612Z,100220.06
2018-02-18T18:10:40.225Z,100225.31
2018-02-18T18:13:08.785Z,100223.16
2018-02-18T18:15:37.346Z,100224.20
2018-02-18T18:18:06.907Z,100223.92
2018-02-18T18:20:35.471Z,100225.81
2018-02-18T18:23:04.037Z,100220.58
2018-02-18T18:25:32.859Z,100217.48
2018-02-18T18:28:01.426Z,100211.72
2018-02-18T18:30:29.986Z,100208.38
2018-02-18T18:32:58.663Z,100206.55
2018-02-18T18:35:27.993Z,100202.56
2018-02-18T18:37:56.557Z,100207.95
2018-02-18T18:40:25.182Z,100199.72
2018-02-18T18:42:53.745Z,100206.53
2018-02-18T18:45:22.315Z,100204.02
2018-02-18T18:47:51.137Z,100207.98
2018-02-18T18:50:19.700Z,100208.79
2018-02-18T18:52:48.257Z,100210.37
2018-02-18T18:55:17.630Z,100205.74
2018-02-18T18:57:46.196Z,100209.57
2018-02-18T19:00:14.763Z,100211.52
2018-02-18T19:02:43.369Z,100207.98
2018-02-18T19:05:11.937Z,100211.78
2018-02-18T19:07:40.501Z,100212.25
2018-02-18T19:10:09.109Z,100214.27
2018-02-18T19:12:37.677Z,100216.75
2018-02-18T19:15:06.240Z,100218.62
2018-02-18T19:17:34.851Z,100223.60
2018-02-18T19:20:03.405Z,100232.78
2018-02-18T19:22:31.961Z,100224.74
2018-02-18T19:25:01.473Z,100227.46
2018-02-18T19:27:30.809Z,100229.69
2018-02-18T19:29:59.366Z,100228.88
2018-02-18T19:32:28.918Z,100230.47
2018-02-18T19:34:57.513Z,100232.66
2018-02-18T19:37:26.087Z,100226.52
2018-02-18T19:39:54.822Z,100232.34
2018-02-18T19:42:24.201Z,100226.53
2018-02-18T19:44:53.544Z,100229.97
2018-02-18T19:47:22.169Z,100228.14
2018-02-18T19:49:50.763Z,100230.16
2018-02-18T19:52:19.335Z,100229.03
2018-02-18T19:54:47.941Z,100229.48
2018-02-18T19:57:17.277Z,100232.00
2018-02-18T19:59:45.840Z,100234.89
2018-02-18T20:02:15.228Z,100227.15
2018-02-18T20:04:43.790Z,100221.42
2018-02-18T20:07:12.361Z,100221.67
2018-02-18T20:09:41.117Z,100216.51
2018-02-18T20:12:09.681Z,100221.39
2018-02-18T20:14:38.245Z,100218.12
2018-02-18T20:17:07.173Z,100220.59
2018-02-18T20:19:35.755Z,100218.59
2018-02-18T20:22:04.318Z,100222.31
2018-02-18T20:24:32.926Z,100218.14
2018-02-18T20:27:01.505Z,100215.61
2018-02-18T20:29:30.105Z,100215.88
2018-02-18T20:31:58.809Z,100219.59
2018-02-18T20:34:28.489Z,100225.65
2018-02-18T20:36:57.052Z,100222.08
2018-02-18T20:39:25.676Z,100221.02
2018-02-18T20:41:54.284Z,100227.24
2018-02-18T20:44:23.634Z,100239.59
2018-02-18T20:46:52.627Z,100235.52
2018-02-18T20:49:21.188Z,100229.30
2018-02-18T20:51:49.748Z,100224.26
2018-02-18T20:54:18.356Z,100221.73
2018-02-18T20:56:46.917Z,100221.24
2018-02-18T20:59:15.476Z,100224.36
2018-02-18T21:01:44.950Z,100227.52
2018-02-18T21:04:13.505Z,100225.11
2018-02-18T21:06:42.065Z,100220.49
2018-02-18T21:09:11.445Z,100230.37
2018-02-18T21:11:40.002Z,100233.13
2018-02-18T21:14:08.568Z,100230.77
2018-02-18T21:16:37.177Z,100227.73
2018-02-18T21:19:05.726Z,100219.99
2018-02-18T21:21:34.297Z,100218.43
2018-02-18T21:24:03.118Z,100223.33
2018-02-18T21:26:31.685Z,100231.38
2018-02-18T21:29:00.245Z,100216.48
2018-02-18T21:31:28.846Z,100216.04
2018-02-18T21:33:57.408Z,100216.77
2018-02-18T21:36:25.968Z,100220.52
2018-02-18T21:38:54.574Z,100216.35
2018-02-18T21:41:23.128Z,100213.71
2018-02-18T21:43:51.681Z,100214.23
2018-02-18T21:46:20.285Z,100208.72
2018-02-18T21:48:48.858Z,100205.94
2018-02-18T21:51:17.427Z,100203.64
2018-02-18T21:53:46.025Z,100211.84
2018-02-18T21:56:14.580Z,100210.31
2018-02-18T21:58:43.145Z,100204.13
2018-02-18T22:01:11.759Z,100206.22
2018-02-18T22:03:40.312Z,100211.10
2018-02-18T22:06:08.860Z,100221.59
2018-02-18T22:08:38.522Z,100213.93
2018-02-18T22:11:07.084Z,100215.45
2018-02-18T22:13:35.636Z,100211.61
2018-02-18T22:16:04.241Z,100209.63
2018-02-18T22:18:33.557Z,100216.88
2018-02-18T22:21:02.125Z,100218.38
2018-02-18T22:23:31.489Z,100215.98
2018-02-18T22:26:00.040Z,100215.93
2018-02-18T22:28:28.592Z,100210.58
2018-02-18T22:30:59.067Z,100205.33
2018-02-18T22:33:27.620Z,100208.23
2018-02-18T22:35:56.172Z,100211.50
2018-02-18T22:38:25.549Z,100211.82
2018-02-18T22:40:54.112Z,100211.86
2018-02-18T22:43:22.665Z,100217.95
2018-02-18T22:45:51.286Z,100218.23
2018-02-18T22:48:19.837Z,100217.52
2018-02-18T22:50:48.399Z,100212.63
2018-02-18T22:53:18.151Z,100211.95
2018-02-18T22:55:46.712Z,100201.62
2018-02-18T22:58:15.264Z,100199.65
2018-02-18T23:00:45.464Z,100203.13
2018-02-18T23:03:14.020Z,100200.08
2018-02-18T23:05:48.173Z,100196.36
2018-02-18T23:08:16.733Z,100198.70
2018-02-18T23:10:45.286Z,100200.25
2018-02-18T23:13:13.891Z,100202.64
2018-02-18T23:15:42.444Z,100203.36
2018-02-18T23:18:11.060Z,100200.13
2018-02-18T23:20:57.332Z,100199.52
2018-02-18T23:23:25.893Z,100193.95
2018-02-18T23:25:55.248Z,100196.87
2018-02-18T23:28:24.021Z,100200.13
2018-02-18T23:30:52.582Z,100197.80
2018-02-18T23:33:21.132Z,100189.63
2018-02-18T23:35:50.606Z,100191.59
2018-02-18T23:38:19.157Z,100194.91
2018-02-18T23:40:47.709Z,100194.73
2018-02-18T23:43:17.172Z,100197.10
2018-02-18T23:45:45.724Z,100196.69
2018-02-18T23:48:14.276Z,100198.98
2018-02-18T23:50:42.885Z,100202.59
2018-02-18T23:53:11.433Z,100196.25
2018-02-18T23:55:39.988Z,100199.86
2018-02-18T23:58:08.604Z,100199.08
